createdAt,value
2023-05-08T00:00:22.151Z,654.02
2023-05-08T00:01:22.171Z,659.31
2023-05-08T00:02:22.177Z,660.64
2023-05-08T00:03:22.166Z,658.85
2023-05-08T00:04:22.146Z,666.14
2023-05-08T00:05:22.121Z,668.75
2023-05-08T00:06:22.088Z,670.66
2023-05-08T00:07:22.098Z,670.62
2023-05-08T00:08:22.073Z,667.66
2023-05-08T00:09:22.070Z,666.30
2023-05-08T00:10:22.065Z,668.06
2023-05-08T00:11:22.037Z,675.79
2023-05-08T00:12:22.033Z,675.76
2023-05-08T00:13:22.172Z,675.80
2023-05-08T00:14:22.011Z,675.98
2023-05-08T00:15:22.007Z,676.41
2023-05-08T00:16:22.041Z,674.50
2023-05-08T00:17:21.983Z,677.93
2023-05-08T00:18:22.001Z,676.48
2023-05-08T00:19:21.965Z,675.41
2023-05-08T00:20:21.934Z,675.30
2023-05-08T00:21:21.921Z,682.37
2023-05-08T00:22:21.911Z,678.40
2023-05-08T00:23:21.905Z,680.28
2023-05-08T00:24:21.908Z,679.66
2023-05-08T00:25:21.898Z,681.69
2023-05-08T00:26:21.887Z,680.82
2023-05-08T00:27:21.873Z,682.36
2023-05-08T00:28:21.847Z,675.20
2023-05-08T00:29:21.846Z,676.81
2023-05-08T00:30:21.835Z,673.96
2023-05-08T00:31:21.821Z,672.43
2023-05-08T00:32:21.965Z,668.32
2023-05-08T00:33:21.810Z,669.57
2023-05-08T00:34:21.806Z,665.46
2023-05-08T00:35:21.784Z,668.59
2023-05-08T00:36:21.761Z,672.60
2023-05-08T00:37:21.748Z,676.49
2023-05-08T00:38:21.751Z,674.06
2023-05-08T00:39:21.745Z,669.56
2023-05-08T00:40:21.728Z,666.50
2023-05-08T00:41:21.703Z,666.14
2023-05-08T00:42:29.205Z,671.30
2023-05-08T00:43:21.693Z,668.70
2023-05-08T00:44:21.688Z,669.19
2023-05-08T00:45:21.661Z,668.47
2023-05-08T00:46:21.730Z,667.90
2023-05-08T00:47:21.718Z,665.38
2023-05-08T00:48:21.621Z,664.61
2023-05-08T00:49:21.615Z,666.17
2023-05-08T00:50:21.637Z,668.12
2023-05-08T00:51:21.595Z,672.35
2023-05-08T00:52:21.579Z,671.49
2023-05-08T00:53:21.571Z,668.45
2023-05-08T00:54:21.569Z,666.25
2023-05-08T00:55:21.549Z,665.58
2023-05-08T00:56:21.569Z,664.11
2023-05-08T00:57:21.533Z,669.79
2023-05-08T00:58:21.510Z,666.07
2023-05-08T00:59:21.515Z,665.77
2023-05-08T01:00:21.500Z,667.48
2023-05-08T01:01:21.495Z,670.63
2023-05-08T01:02:21.490Z,678.04
2023-05-08T01:03:21.570Z,674.99
2023-05-08T01:04:21.490Z,670.23
2023-05-08T01:05:21.450Z,670.61
2023-05-08T01:06:21.451Z,671.18
2023-05-08T01:07:21.449Z,667.98
2023-05-08T01:08:21.409Z,665.12
2023-05-08T01:09:21.400Z,663.78
2023-05-08T01:10:21.383Z,664.45
2023-05-08T01:11:21.396Z,669.04
2023-05-08T01:12:21.372Z,669.85
2023-05-08T01:13:21.467Z,670.41
2023-05-08T01:14:21.363Z,671.23
2023-05-08T01:15:21.349Z,669.33
2023-05-08T01:16:21.361Z,668.83
2023-05-08T01:17:21.350Z,667.82
2023-05-08T01:18:21.298Z,670.47
2023-05-08T01:19:21.385Z,668.79
2023-05-08T01:20:21.283Z,669.07
2023-05-08T01:21:21.285Z,669.99
2023-05-08T01:22:21.289Z,669.10
2023-05-08T01:23:21.243Z,672.11
2023-05-08T01:24:21.248Z,672.60
2023-05-08T01:25:21.223Z,672.71
2023-05-08T01:26:21.207Z,670.24
2023-05-08T01:27:21.225Z,670.47
2023-05-08T01:28:21.203Z,670.49
2023-05-08T01:29:21.187Z,676.15
2023-05-08T01:30:21.186Z,675.73
2023-05-08T01:31:21.191Z,673.63
2023-05-08T01:32:21.214Z,675.49
2023-05-08T01:33:21.190Z,673.75
2023-05-08T01:34:21.135Z,671.58
2023-05-08T01:35:21.104Z,674.68
2023-05-08T01:36:21.118Z,674.93
2023-05-08T01:37:21.091Z,672.97
2023-05-08T01:38:21.103Z,667.71
2023-05-08T01:39:21.072Z,666.54
2023-05-08T01:40:21.069Z,669.93
2023-05-08T01:41:21.054Z,669.34
2023-05-08T01:42:21.040Z,672.94
2023-05-08T01:43:21.027Z,672.22
2023-05-08T01:44:21.037Z,673.39
2023-05-08T01:45:21.004Z,676.79
2023-05-08T01:46:21.066Z,675.49
2023-05-08T01:47:20.985Z,672.41
2023-05-08T01:48:20.968Z,669.72
2023-05-08T01:49:20.960Z,669.92
2023-05-08T01:50:20.960Z,673.31
2023-05-08T01:51:20.948Z,669.85
2023-05-08T01:52:20.940Z,669.25
2023-05-08T01:53:20.932Z,671.62
2023-05-08T01:54:20.931Z,680.22
2023-05-08T01:55:20.901Z,679.31
2023-05-08T01:56:20.909Z,678.51
2023-05-08T01:57:20.880Z,674.77
2023-05-08T01:58:20.879Z,672.83
2023-05-08T01:59:20.878Z,669.65
2023-05-08T02:00:20.856Z,670.22
2023-05-08T02:01:20.905Z,671.99
2023-05-08T02:02:20.903Z,681.91
2023-05-08T02:03:20.869Z,675.02
2023-05-08T02:04:20.862Z,667.22
2023-05-08T02:05:20.781Z,661.25
2023-05-08T02:06:20.772Z,662.28
2023-05-08T02:07:20.777Z,664.76
2023-05-08T02:08:20.766Z,664.87
2023-05-08T02:09:20.735Z,670.37
2023-05-08T02:10:20.791Z,675.47
2023-05-08T02:11:20.720Z,674.66
2023-05-08T02:12:20.703Z,675.10
2023-05-08T02:13:20.815Z,683.29
2023-05-08T02:14:20.680Z,680.07
2023-05-08T02:15:20.688Z,683.92
2023-05-08T02:16:20.730Z,682.75
2023-05-08T02:17:20.694Z,679.42
2023-05-08T02:18:20.685Z,675.44
2023-05-08T02:19:20.643Z,673.84
2023-05-08T02:20:20.656Z,670.78
2023-05-08T02:21:20.629Z,670.50
2023-05-08T02:22:20.596Z,669.76
2023-05-08T02:23:20.600Z,668.13
2023-05-08T02:24:20.573Z,670.02
2023-05-08T02:25:20.557Z,671.58
2023-05-08T02:26:20.589Z,670.29
2023-05-08T02:27:20.548Z,674.64
2023-05-08T02:28:20.537Z,673.28
2023-05-08T02:29:20.512Z,671.57
2023-05-08T02:30:20.536Z,668.55
2023-05-08T02:31:20.530Z,662.42
2023-05-08T02:32:20.583Z,657.33
2023-05-08T02:33:20.487Z,656.24
2023-05-08T02:34:20.467Z,657.70
2023-05-08T02:35:20.476Z,661.83
2023-05-08T02:36:20.446Z,660.93
2023-05-08T02:37:20.428Z,660.83
2023-05-08T02:38:20.426Z,666.24
2023-05-08T02:39:20.437Z,666.95
2023-05-08T02:40:20.401Z,663.40
2023-05-08T02:41:20.388Z,663.23
2023-05-08T02:42:20.404Z,662.14
2023-05-08T02:43:27.867Z,661.64
2023-05-08T02:44:20.354Z,663.04
2023-05-08T02:45:20.351Z,667.37
2023-05-08T02:46:20.372Z,664.70
2023-05-08T02:47:20.381Z,669.80
2023-05-08T02:48:20.311Z,667.43
2023-05-08T02:49:20.304Z,664.77
2023-05-08T02:50:20.302Z,665.36
2023-05-08T02:51:20.287Z,666.26
2023-05-08T02:52:20.270Z,663.45
2023-05-08T02:53:20.252Z,666.04
2023-05-08T02:54:20.244Z,668.89
2023-05-08T02:55:20.229Z,669.99
2023-05-08T02:56:20.245Z,669.12
2023-05-08T02:57:20.225Z,667.73
2023-05-08T02:58:20.222Z,665.18
2023-05-08T02:59:20.190Z,665.10
2023-05-08T03:00:20.179Z,666.28
2023-05-08T03:01:20.184Z,664.94
2023-05-08T03:02:20.204Z,663.12
2023-05-08T03:03:20.239Z,664.41
2023-05-08T03:04:20.134Z,669.40
2023-05-08T03:05:20.131Z,670.99
2023-05-08T03:06:20.108Z,678.32
2023-05-08T03:07:20.094Z,678.05
2023-05-08T03:08:20.097Z,680.13
2023-05-08T03:09:20.075Z,673.67
2023-05-08T03:10:20.093Z,666.83
2023-05-08T03:11:20.056Z,669.60
2023-05-08T03:12:20.064Z,667.62
2023-05-08T03:13:20.139Z,666.11
2023-05-08T03:14:20.046Z,666.88
2023-05-08T03:15:20.043Z,665.51
2023-05-08T03:16:20.047Z,665.48
2023-05-08T03:17:20.017Z,665.43
2023-05-08T03:18:19.984Z,663.12
2023-05-08T03:19:21.793Z,661.78
2023-05-08T03:20:19.968Z,659.99
2023-05-08T03:21:19.953Z,668.25
2023-05-08T03:22:19.942Z,668.33
2023-05-08T03:23:19.930Z,664.87
2023-05-08T03:24:19.912Z,666.92
2023-05-08T03:25:19.918Z,668.03
2023-05-08T03:26:19.902Z,667.84
2023-05-08T03:27:19.884Z,671.60
2023-05-08T03:28:19.870Z,668.70
2023-05-08T03:29:19.891Z,665.68
2023-05-08T03:30:19.875Z,666.02
2023-05-08T03:31:19.880Z,665.15
2023-05-08T03:32:19.827Z,660.43
2023-05-08T03:33:19.830Z,659.06
2023-05-08T03:34:19.821Z,657.53
2023-05-08T03:35:19.792Z,659.06
2023-05-08T03:36:19.786Z,657.37
2023-05-08T03:37:19.792Z,660.87
2023-05-08T03:38:19.760Z,665.16
2023-05-08T03:39:19.765Z,663.06
2023-05-08T03:40:19.756Z,663.79
2023-05-08T03:41:19.735Z,665.15
2023-05-08T03:42:19.725Z,664.40
2023-05-08T03:43:19.710Z,661.43
2023-05-08T03:44:19.701Z,660.76
2023-05-08T03:45:19.682Z,661.17
2023-05-08T03:46:19.757Z,659.78
2023-05-08T03:47:19.666Z,659.81
2023-05-08T03:48:19.685Z,659.02
2023-05-08T03:49:19.644Z,662.09
2023-05-08T03:50:19.648Z,664.78
2023-05-08T03:51:19.617Z,669.32
2023-05-08T03:52:19.610Z,667.87
2023-05-08T03:53:19.606Z,667.05
2023-05-08T03:54:19.584Z,662.99
2023-05-08T03:55:19.587Z,663.77
2023-05-08T03:56:19.564Z,664.43
2023-05-08T03:57:19.567Z,666.54
2023-05-08T03:58:19.558Z,666.20
2023-05-08T03:59:19.541Z,660.83
2023-05-08T04:00:19.538Z,662.68
2023-05-08T04:01:19.513Z,658.82
2023-05-08T04:02:19.705Z,656.42
2023-05-08T04:03:19.594Z,655.74
2023-05-08T04:04:19.564Z,658.53
2023-05-08T04:05:19.482Z,658.95
2023-05-08T04:06:19.461Z,660.38
2023-05-08T04:07:19.453Z,660.21
2023-05-08T04:08:19.454Z,661.20
2023-05-08T04:09:19.421Z,658.03
2023-05-08T04:10:19.421Z,657.44
2023-05-08T04:11:19.433Z,653.51
2023-05-08T04:12:19.399Z,656.08
2023-05-08T04:13:19.412Z,656.98
2023-05-08T04:14:19.389Z,656.85
2023-05-08T04:15:19.359Z,656.09
2023-05-08T04:16:19.486Z,653.83
2023-05-08T04:17:19.385Z,651.60
2023-05-08T04:18:19.357Z,652.38
2023-05-08T04:19:19.316Z,652.46
2023-05-08T04:20:19.316Z,654.38
2023-05-08T04:21:19.306Z,655.89
2023-05-08T04:22:19.287Z,653.60
2023-05-08T04:23:19.276Z,652.40
2023-05-08T04:24:19.273Z,653.08
2023-05-08T04:25:19.266Z,656.90
2023-05-08T04:26:19.248Z,657.28
2023-05-08T04:27:19.229Z,662.48
2023-05-08T04:28:19.224Z,664.53
2023-05-08T04:29:19.215Z,659.56
2023-05-08T04:30:19.214Z,660.87
2023-05-08T04:31:19.235Z,662.76
2023-05-08T04:32:19.231Z,663.96
2023-05-08T04:33:19.329Z,662.55
2023-05-08T04:34:19.303Z,669.37
2023-05-08T04:35:19.144Z,671.19
2023-05-08T04:36:19.145Z,669.23
2023-05-08T04:37:19.128Z,664.85
2023-05-08T04:38:19.126Z,661.17
2023-05-08T04:39:19.100Z,659.85
2023-05-08T04:40:19.124Z,660.30
2023-05-08T04:41:19.088Z,664.59
2023-05-08T04:42:19.083Z,671.13
2023-05-08T04:43:19.060Z,669.89
2023-05-08T04:44:26.561Z,666.77
2023-05-08T04:45:19.033Z,666.73
2023-05-08T04:46:19.122Z,664.21
2023-05-08T04:47:19.094Z,665.94
2023-05-08T04:48:19.019Z,662.14
2023-05-08T04:49:18.988Z,657.00
2023-05-08T04:50:19.007Z,657.06
2023-05-08T04:51:19.002Z,654.91
2023-05-08T04:52:18.984Z,654.74
2023-05-08T04:53:18.956Z,653.87
2023-05-08T04:54:18.937Z,657.65
2023-05-08T04:55:18.921Z,661.79
2023-05-08T04:56:18.917Z,660.11
2023-05-08T04:57:18.905Z,660.05
2023-05-08T04:58:18.926Z,661.32
2023-05-08T04:59:18.879Z,658.91
2023-05-08T05:00:18.876Z,658.30
2023-05-08T05:01:18.910Z,657.38
2023-05-08T05:02:18.893Z,657.20
2023-05-08T05:03:18.878Z,658.76
2023-05-08T05:04:18.853Z,660.37
2023-05-08T05:05:18.822Z,658.66
2023-05-08T05:06:18.910Z,657.94
2023-05-08T05:07:18.802Z,657.30
2023-05-08T05:08:18.779Z,654.97
2023-05-08T05:09:18.768Z,655.67
2023-05-08T05:10:18.776Z,657.51
2023-05-08T05:11:18.747Z,659.59
2023-05-08T05:12:18.736Z,660.90
2023-05-08T05:13:18.749Z,660.10
2023-05-08T05:14:18.726Z,666.14
2023-05-08T05:15:18.700Z,671.25
2023-05-08T05:16:18.738Z,672.50
2023-05-08T05:17:18.684Z,667.84
2023-05-08T05:18:18.669Z,662.06
2023-05-08T05:19:18.673Z,662.89
2023-05-08T05:20:18.667Z,666.32
2023-05-08T05:21:18.635Z,669.29
2023-05-08T05:22:18.673Z,671.25
2023-05-08T05:23:18.617Z,671.12
2023-05-08T05:24:18.601Z,670.97
2023-05-08T05:25:18.613Z,670.37
2023-05-08T05:26:18.579Z,669.97
2023-05-08T05:27:21.202Z,673.80
2023-05-08T05:28:18.565Z,675.52
2023-05-08T05:29:18.552Z,678.96
2023-05-08T05:30:18.562Z,679.52
2023-05-08T05:31:18.630Z,684.45
2023-05-08T05:32:18.517Z,679.92
2023-05-08T05:33:18.512Z,677.70
2023-05-08T05:34:18.494Z,680.10
2023-05-08T05:35:18.503Z,678.06
2023-05-08T05:36:18.471Z,677.05
2023-05-08T05:37:18.459Z,678.62
2023-05-08T05:38:18.492Z,680.32
2023-05-08T05:39:18.441Z,682.97
2023-05-08T05:40:18.440Z,685.07
2023-05-08T05:41:18.439Z,680.54
2023-05-08T05:42:18.406Z,688.13
2023-05-08T05:43:18.408Z,690.42
2023-05-08T05:44:18.390Z,688.74
2023-05-08T05:45:18.380Z,688.31
2023-05-08T05:46:18.415Z,684.95
2023-05-08T05:47:18.534Z,689.29
2023-05-08T05:48:18.333Z,689.29
2023-05-08T05:49:18.352Z,687.39
2023-05-08T05:50:18.325Z,688.72
2023-05-08T05:51:18.341Z,688.15
2023-05-08T05:52:18.326Z,695.14
2023-05-08T05:53:18.310Z,691.92
2023-05-08T05:54:18.314Z,695.23
2023-05-08T05:55:18.279Z,690.64
2023-05-08T05:56:18.254Z,691.06
2023-05-08T05:57:18.435Z,693.02
2023-05-08T05:58:18.407Z,689.03
2023-05-08T05:59:18.246Z,693.62
2023-05-08T06:00:18.220Z,694.10
2023-05-08T06:01:18.218Z,697.02
2023-05-08T06:02:18.284Z,700.83
2023-05-08T06:03:18.265Z,702.00
2023-05-08T06:04:22.989Z,699.28
2023-05-08T06:05:18.221Z,693.58
2023-05-08T06:06:18.153Z,700.79
2023-05-08T06:07:18.128Z,699.53
2023-05-08T06:08:18.119Z,700.45
2023-05-08T06:09:18.137Z,699.33
2023-05-08T06:10:18.114Z,693.79
2023-05-08T06:11:18.112Z,689.75
2023-05-08T06:12:18.998Z,689.66
2023-05-08T06:13:18.162Z,693.76
2023-05-08T06:14:18.074Z,692.69
2023-05-08T06:15:18.038Z,694.08
2023-05-08T06:16:18.062Z,694.95
2023-05-08T06:17:18.052Z,698.50
2023-05-08T06:18:18.804Z,696.73
2023-05-08T06:19:18.033Z,694.95
2023-05-08T06:20:18.009Z,694.03
2023-05-08T06:21:17.970Z,694.08
2023-05-08T06:22:18.061Z,697.13
2023-05-08T06:23:18.025Z,705.93
2023-05-08T06:24:18.204Z,702.99
2023-05-08T06:25:17.933Z,699.23
2023-05-08T06:26:17.952Z,695.44
2023-05-08T06:27:17.913Z,692.06
2023-05-08T06:28:17.932Z,694.38
2023-05-08T06:29:17.887Z,694.45
2023-05-08T06:30:17.870Z,693.00
2023-05-08T06:31:17.924Z,689.98
2023-05-08T06:32:17.867Z,690.10
2023-05-08T06:33:17.846Z,688.14
2023-05-08T06:34:17.857Z,692.28
2023-05-08T06:35:17.834Z,691.45
2023-05-08T06:36:17.852Z,688.45
2023-05-08T06:37:17.830Z,685.77
2023-05-08T06:38:17.837Z,687.01
2023-05-08T06:39:17.781Z,693.04
2023-05-08T06:40:17.787Z,695.10
2023-05-08T06:41:17.754Z,690.38
2023-05-08T06:42:17.779Z,688.50
2023-05-08T06:43:17.740Z,702.36
2023-05-08T06:44:17.783Z,704.69
2023-05-08T06:45:25.219Z,703.83
2023-05-08T06:46:17.781Z,706.34
2023-05-08T06:47:17.692Z,704.58
2023-05-08T06:48:17.684Z,702.08
2023-05-08T06:49:17.675Z,702.11
2023-05-08T06:50:17.686Z,698.59
2023-05-08T06:51:17.648Z,697.24
2023-05-08T06:52:17.631Z,696.95
2023-05-08T06:53:17.645Z,695.52
2023-05-08T06:54:17.616Z,694.43
2023-05-08T06:55:17.610Z,694.85
2023-05-08T06:56:17.619Z,696.61
2023-05-08T06:57:17.609Z,700.96
2023-05-08T06:58:17.708Z,699.99
2023-05-08T06:59:17.591Z,692.54
2023-05-08T07:00:17.564Z,693.55
2023-05-08T07:01:17.647Z,694.27
2023-05-08T07:02:17.521Z,690.71
2023-05-08T07:03:17.532Z,694.39
2023-05-08T07:04:17.533Z,690.04
2023-05-08T07:05:18.089Z,689.11
2023-05-08T07:06:17.489Z,691.00
2023-05-08T07:07:17.679Z,689.27
2023-05-08T07:08:18.438Z,688.12
2023-05-08T07:09:17.476Z,691.63
2023-05-08T07:10:17.453Z,697.22
2023-05-08T07:11:17.463Z,697.62
2023-05-08T07:12:17.503Z,700.09
2023-05-08T07:13:17.437Z,692.16
2023-05-08T07:14:17.862Z,699.54
2023-05-08T07:15:25.284Z,693.77
2023-05-08T07:16:17.450Z,692.51
2023-05-08T07:17:17.378Z,697.56
2023-05-08T07:18:17.389Z,696.42
2023-05-08T07:19:17.367Z,695.36
2023-05-08T07:20:17.376Z,694.19
2023-05-08T07:21:17.338Z,690.83
2023-05-08T07:22:17.367Z,696.92
2023-05-08T07:23:17.323Z,691.47
2023-05-08T07:24:17.313Z,686.26
2023-05-08T07:25:17.286Z,682.33
2023-05-08T07:26:17.276Z,680.37
2023-05-08T07:27:17.264Z,685.79
2023-05-08T07:28:17.579Z,691.44
2023-05-08T07:29:17.263Z,695.25
2023-05-08T07:30:17.255Z,694.35
2023-05-08T07:31:17.254Z,693.60
2023-05-08T07:32:17.207Z,701.61
2023-05-08T07:33:17.235Z,702.51
2023-05-08T07:34:17.194Z,702.30
2023-05-08T07:35:17.458Z,700.98
2023-05-08T07:36:17.199Z,695.18
2023-05-08T07:37:17.280Z,692.41
2023-05-08T07:38:17.152Z,686.11
2023-05-08T07:39:17.129Z,685.55
2023-05-08T07:40:17.182Z,701.02
2023-05-08T07:41:17.131Z,698.93
2023-05-08T07:42:17.085Z,698.97
2023-05-08T07:43:17.087Z,698.01
2023-05-08T07:44:17.059Z,699.01
2023-05-08T07:45:17.250Z,690.65
2023-05-08T07:46:17.146Z,688.71
2023-05-08T07:47:17.080Z,687.77
2023-05-08T07:48:17.091Z,691.38
2023-05-08T07:49:17.018Z,688.09
2023-05-08T07:50:17.004Z,691.96
2023-05-08T07:51:17.010Z,686.58
2023-05-08T07:52:17.009Z,686.75
2023-05-08T07:53:16.983Z,697.51
2023-05-08T07:54:17.838Z,694.25
2023-05-08T07:55:16.973Z,692.56
2023-05-08T07:56:16.932Z,694.77
2023-05-08T07:57:16.962Z,691.60
2023-05-08T07:58:16.934Z,695.05
2023-05-08T07:59:16.896Z,695.56
2023-05-08T08:00:16.897Z,695.33
2023-05-08T08:01:16.886Z,695.72
2023-05-08T08:02:16.977Z,690.04
2023-05-08T08:03:16.971Z,684.90
2023-05-08T08:04:16.896Z,682.68
2023-05-08T08:05:17.034Z,678.94
2023-05-08T08:06:16.818Z,682.74
2023-05-08T08:07:16.859Z,680.70
2023-05-08T08:08:20.774Z,687.04
2023-05-08T08:09:16.826Z,689.08
2023-05-08T08:10:16.792Z,683.84
2023-05-08T08:11:16.783Z,688.80
2023-05-08T08:12:16.757Z,692.85
2023-05-08T08:13:16.832Z,687.35
2023-05-08T08:14:16.738Z,686.36
2023-05-08T08:15:16.829Z,688.45
2023-05-08T08:16:16.804Z,685.12
2023-05-08T08:17:16.796Z,688.76
2023-05-08T08:18:16.893Z,696.40
2023-05-08T08:19:16.687Z,694.08
2023-05-08T08:20:16.692Z,686.88
2023-05-08T08:21:16.942Z,686.89
2023-05-08T08:22:16.718Z,692.28
2023-05-08T08:23:16.641Z,695.03
2023-05-08T08:24:16.638Z,689.44
2023-05-08T08:25:16.624Z,682.80
2023-05-08T08:26:16.603Z,679.15
2023-05-08T08:27:16.784Z,680.48
2023-05-08T08:28:16.588Z,675.47
2023-05-08T08:29:16.704Z,673.65
2023-05-08T08:30:18.187Z,671.95
2023-05-08T08:31:16.618Z,671.51
2023-05-08T08:32:16.547Z,677.58
2023-05-08T08:33:18.900Z,675.99
2023-05-08T08:34:16.654Z,677.25
2023-05-08T08:35:17.697Z,682.70
2023-05-08T08:36:16.504Z,678.91
2023-05-08T08:37:16.501Z,680.65
2023-05-08T08:38:16.562Z,677.87
2023-05-08T08:39:16.530Z,685.24
2023-05-08T08:40:16.455Z,688.22
2023-05-08T08:41:16.650Z,681.73
2023-05-08T08:42:16.473Z,680.72
2023-05-08T08:43:16.432Z,683.70
2023-05-08T08:44:16.411Z,677.84
2023-05-08T08:45:16.815Z,675.40
2023-05-08T08:46:23.929Z,668.52
2023-05-08T08:47:16.400Z,669.32
2023-05-08T08:48:16.384Z,678.92
2023-05-08T08:49:16.362Z,684.85
2023-05-08T08:50:16.474Z,685.91
2023-05-08T08:51:16.341Z,695.05
2023-05-08T08:52:16.341Z,693.56
2023-05-08T08:53:16.572Z,688.58
2023-05-08T08:54:16.446Z,683.18
2023-05-08T08:55:16.323Z,677.76
2023-05-08T08:56:16.286Z,676.33
2023-05-08T08:57:16.274Z,679.05
2023-05-08T08:58:16.337Z,674.75
2023-05-08T08:59:16.273Z,675.24
2023-05-08T09:00:16.242Z,674.03
2023-05-08T09:01:16.270Z,673.60
2023-05-08T09:02:16.405Z,673.75
2023-05-08T09:03:16.295Z,678.35
2023-05-08T09:04:16.376Z,673.56
2023-05-08T09:05:16.254Z,675.72
2023-05-08T09:06:16.323Z,678.17
2023-05-08T09:07:16.201Z,682.22
2023-05-08T09:08:16.153Z,688.50
2023-05-08T09:09:16.150Z,687.65
2023-05-08T09:10:16.141Z,682.25
2023-05-08T09:11:16.140Z,675.20
2023-05-08T09:12:16.149Z,675.11
2023-05-08T09:13:17.338Z,675.65
2023-05-08T09:14:16.124Z,671.46
2023-05-08T09:15:16.295Z,678.16
2023-05-08T09:16:16.158Z,689.86
2023-05-08T09:17:16.070Z,681.38
2023-05-08T09:18:16.054Z,691.25
2023-05-08T09:19:16.093Z,685.64
2023-05-08T09:20:16.224Z,686.76
2023-05-08T09:21:16.036Z,686.18
2023-05-08T09:22:16.046Z,682.25
2023-05-08T09:23:16.938Z,681.07
2023-05-08T09:24:16.075Z,678.17
2023-05-08T09:25:16.188Z,675.70
2023-05-08T09:26:15.976Z,676.42
2023-05-08T09:27:15.966Z,672.10
2023-05-08T09:28:15.944Z,671.33
2023-05-08T09:29:15.927Z,667.58
2023-05-08T09:30:15.922Z,668.19
2023-05-08T09:31:15.978Z,666.63
2023-05-08T09:32:15.921Z,664.54
2023-05-08T09:33:15.890Z,662.69
2023-05-08T09:34:15.896Z,660.22
2023-05-08T09:35:16.210Z,662.64
2023-05-08T09:36:15.897Z,661.51
2023-05-08T09:37:15.850Z,662.98
2023-05-08T09:38:15.955Z,668.45
2023-05-08T09:39:15.838Z,670.71
2023-05-08T09:40:15.814Z,671.48
2023-05-08T09:41:16.098Z,673.56
2023-05-08T09:42:15.808Z,673.46
2023-05-08T09:43:15.788Z,666.93
2023-05-08T09:44:15.786Z,667.94
2023-05-08T09:45:15.948Z,666.44
2023-05-08T09:46:15.837Z,665.58
2023-05-08T09:47:15.736Z,661.54
2023-05-08T09:48:15.761Z,664.95
2023-05-08T09:49:15.711Z,664.05
2023-05-08T09:50:15.817Z,673.01
2023-05-08T09:51:15.690Z,667.01
2023-05-08T09:52:15.766Z,662.45
2023-05-08T09:53:15.660Z,661.04
2023-05-08T09:54:15.785Z,667.24
2023-05-08T09:55:15.679Z,669.55
2023-05-08T09:56:15.652Z,674.35
2023-05-08T09:57:15.645Z,679.17
2023-05-08T09:58:15.631Z,684.66
2023-05-08T09:59:15.600Z,688.92
2023-05-08T10:00:15.980Z,690.56
2023-05-08T10:01:15.613Z,683.96
2023-05-08T10:02:15.578Z,681.97
2023-05-08T10:03:15.597Z,680.10
2023-05-08T10:04:15.596Z,672.63
2023-05-08T10:05:15.562Z,668.08
2023-05-08T10:06:15.536Z,665.38
2023-05-08T10:07:15.562Z,668.11
2023-05-08T10:08:15.543Z,670.10
2023-05-08T10:09:15.506Z,672.42
2023-05-08T10:10:15.621Z,668.87
2023-05-08T10:11:15.476Z,670.22
2023-05-08T10:12:15.464Z,668.10
2023-05-08T10:13:15.527Z,674.26
2023-05-08T10:14:15.451Z,670.94
2023-05-08T10:15:15.447Z,672.49
2023-05-08T10:16:15.485Z,683.07
2023-05-08T10:17:15.773Z,683.48
2023-05-08T10:18:15.406Z,676.37
2023-05-08T10:19:15.379Z,672.15
2023-05-08T10:20:15.668Z,670.47
2023-05-08T10:21:15.659Z,673.02
2023-05-08T10:22:15.354Z,672.19
2023-05-08T10:23:15.364Z,668.26
2023-05-08T10:24:15.335Z,666.59
2023-05-08T10:25:15.325Z,675.82
2023-05-08T10:26:15.455Z,684.89
2023-05-08T10:27:15.328Z,684.05
2023-05-08T10:28:15.292Z,681.77
2023-05-08T10:29:15.275Z,683.52
2023-05-08T10:30:15.614Z,680.14
2023-05-08T10:31:15.360Z,681.60
2023-05-08T10:32:15.263Z,676.11
2023-05-08T10:33:15.269Z,672.21
2023-05-08T10:34:15.241Z,673.95
2023-05-08T10:35:15.393Z,683.11
2023-05-08T10:36:15.201Z,683.57
2023-05-08T10:37:15.196Z,677.84
2023-05-08T10:38:15.181Z,669.96
2023-05-08T10:39:15.182Z,672.79
2023-05-08T10:40:15.459Z,670.18
2023-05-08T10:41:15.167Z,668.98
2023-05-08T10:42:15.615Z,667.17
2023-05-08T10:43:15.133Z,668.11
2023-05-08T10:44:15.232Z,672.14
2023-05-08T10:45:15.142Z,674.06
2023-05-08T10:46:15.200Z,673.42
2023-05-08T10:47:23.458Z,665.60
2023-05-08T10:48:15.135Z,666.20
2023-05-08T10:49:16.080Z,667.65
2023-05-08T10:50:15.380Z,668.75
2023-05-08T10:51:15.110Z,664.89
2023-05-08T10:52:15.048Z,665.82
2023-05-08T10:53:15.037Z,664.28
2023-05-08T10:54:15.272Z,662.55
2023-05-08T10:55:15.013Z,662.49
2023-05-08T10:56:14.998Z,660.47
2023-05-08T10:57:14.982Z,664.94
2023-05-08T10:58:15.025Z,669.64
2023-05-08T10:59:14.959Z,667.81
2023-05-08T11:00:15.252Z,670.25
2023-05-08T11:01:15.015Z,667.46
2023-05-08T11:02:14.986Z,673.27
2023-05-08T11:03:29.875Z,674.96
2023-05-08T11:04:15.093Z,682.87
2023-05-08T11:05:14.913Z,684.13
2023-05-08T11:06:14.917Z,681.84
2023-05-08T11:07:14.895Z,675.88
2023-05-08T11:08:14.859Z,673.23
2023-05-08T11:09:14.861Z,674.22
2023-05-08T11:10:14.986Z,672.78
2023-05-08T11:11:14.842Z,677.50
2023-05-08T11:12:14.831Z,675.73
2023-05-08T11:13:14.867Z,677.44
2023-05-08T11:14:14.831Z,672.39
2023-05-08T11:15:14.802Z,669.02
2023-05-08T11:16:14.812Z,670.68
2023-05-08T11:17:14.781Z,669.10
2023-05-08T11:18:14.816Z,666.27
2023-05-08T11:19:14.748Z,664.72
2023-05-08T11:20:14.953Z,671.76
2023-05-08T11:21:14.732Z,668.02
2023-05-08T11:22:14.732Z,665.77
2023-05-08T11:23:14.701Z,666.47
2023-05-08T11:24:15.463Z,665.96
2023-05-08T11:25:14.688Z,669.68
2023-05-08T11:26:14.682Z,668.23
2023-05-08T11:27:14.651Z,671.16
2023-05-08T11:28:14.672Z,673.17
2023-05-08T11:29:14.630Z,672.98
2023-05-08T11:30:14.901Z,672.83
2023-05-08T11:31:14.692Z,676.43
2023-05-08T11:32:14.631Z,672.59
2023-05-08T11:33:14.603Z,675.98
2023-05-08T11:34:14.575Z,677.24
2023-05-08T11:35:14.565Z,672.28
2023-05-08T11:36:14.553Z,673.32
2023-05-08T11:37:14.552Z,677.30
2023-05-08T11:38:14.532Z,680.75
2023-05-08T11:39:14.547Z,673.41
2023-05-08T11:40:14.738Z,670.72
2023-05-08T11:41:14.529Z,674.00
2023-05-08T11:42:14.492Z,675.75
2023-05-08T11:43:14.491Z,676.25
2023-05-08T11:44:15.119Z,675.95
2023-05-08T11:45:14.458Z,675.02
2023-05-08T11:46:14.468Z,673.41
2023-05-08T11:47:14.476Z,671.40
2023-05-08T11:48:14.452Z,670.79
2023-05-08T11:49:14.502Z,676.10
2023-05-08T11:50:14.733Z,680.16
2023-05-08T11:51:14.393Z,681.00
2023-05-08T11:52:14.396Z,677.80
2023-05-08T11:53:14.401Z,679.34
2023-05-08T11:54:14.385Z,676.77
2023-05-08T11:55:14.358Z,677.54
2023-05-08T11:56:14.361Z,680.12
2023-05-08T11:57:14.437Z,681.68
2023-05-08T11:58:14.338Z,677.70
2023-05-08T11:59:14.366Z,671.19
2023-05-08T12:00:14.655Z,667.77
2023-05-08T12:01:15.104Z,666.78
2023-05-08T12:02:15.076Z,664.84
2023-05-08T12:03:14.458Z,665.32
2023-05-08T12:04:14.406Z,664.30
2023-05-08T12:05:14.333Z,665.43
2023-05-08T12:06:14.238Z,664.98
2023-05-08T12:07:14.256Z,662.26
2023-05-08T12:08:14.229Z,659.89
2023-05-08T12:09:14.246Z,661.44
2023-05-08T12:10:14.684Z,661.83
2023-05-08T12:11:14.191Z,662.93
2023-05-08T12:12:14.193Z,660.27
2023-05-08T12:13:14.181Z,662.57
2023-05-08T12:14:14.159Z,661.91
2023-05-08T12:15:14.140Z,662.26
2023-05-08T12:16:14.130Z,663.56
2023-05-08T12:17:14.214Z,663.05
2023-05-08T12:18:14.153Z,659.96
2023-05-08T12:19:14.175Z,663.12
2023-05-08T12:20:14.555Z,663.58
2023-05-08T12:21:14.086Z,665.15
2023-05-08T12:22:14.076Z,663.66
2023-05-08T12:23:14.050Z,664.75
2023-05-08T12:24:14.052Z,662.98
2023-05-08T12:25:14.359Z,663.76
2023-05-08T12:26:14.035Z,663.66
2023-05-08T12:27:14.018Z,667.06
2023-05-08T12:28:14.003Z,668.93